Time;durP1;ratioP1;P1;durP2;ratioP2;P2;SDS_P1;SDS_P2;PMS_P1;PMS_P2;Temp;Humidity;BMP_temperature;BMP_pressure;BME280_temperature;BME280_humidity;BME280_pressure;Samples;Min_cycle;Max_cycle;Signal;HPM_P1;HPM_P2
2024/04/05 00:01:07;;;;;;;;;;;10.10;99.90;;;;;;5025928;28;20022;-94
2024/04/05 00:03:33;;;;;;;30.10;6.60;;;10.10;99.90;;;;;;5024268;28;20255;-96
2024/04/05 00:05:59;;;;;;;22.63;6.97;;;10.10;99.90;;;;;;5026228;28;20034;-92
2024/04/05 00:08:30;;;;;;;26.05;7.43;;;10.10;99.90;;;;;;5025149;28;20052;-95
2024/04/05 00:10:56;;;;;;;26.88;8.43;;;10.10;99.90;;;;;;5025005;28;20093;-90
2024/04/05 00:13:23;;;;;;;20.77;7.30;;;10.10;99.90;;;;;;5026013;28;20499;-93
2024/04/05 00:15:48;;;;;;;30.67;8.65;;;10.20;99.90;;;;;;5020503;28;20073;-93
2024/04/05 00:18:15;;;;;;;17.38;7.72;;;10.20;99.90;;;;;;5020237;28;20033;-94
2024/04/05 00:20:40;;;;;;;25.67;8.55;;;10.20;99.90;;;;;;5018835;28;20053;-93
2024/04/05 00:23:06;;;;;;;28.58;7.13;;;10.20;99.90;;;;;;5003427;28;20041;-94
2024/04/05 00:25:35;;;;;;;26.80;8.93;;;10.20;99.90;;;;;;5001837;28;20030;-94
2024/04/05 00:28:03;;;;;;;25.33;8.75;;;10.20;99.90;;;;;;5000936;28;20045;-95
2024/04/05 00:30:35;;;;;;;22.05;7.75;;;10.20;99.90;;;;;;5001297;28;20041;-94
2024/04/05 00:33:02;;;;;;;23.90;8.75;;;10.30;99.90;;;;;;5000360;28;20034;-94
2024/04/05 00:35:28;;;;;;;27.13;8.63;;;10.30;99.90;;;;;;4998888;28;20037;-95
2024/04/05 00:37:57;;;;;;;21.88;7.50;;;10.40;99.90;;;;;;4999224;28;20589;-93
2024/04/05 00:40:37;;;;;;;31.67;7.85;;;10.40;99.90;;;;;;4999652;28;20026;-94
2024/04/05 00:43:04;;;;;;;24.80;8.00;;;10.40;99.90;;;;;;4998802;28;20037;-93
2024/04/05 00:45:30;;;;;;;12.20;6.63;;;10.40;99.90;;;;;;4999156;28;20026;-94
2024/04/05 00:47:56;;;;;;;13.55;4.80;;;10.40;99.90;;;;;;4998958;28;20030;-93
2024/04/05 00:50:43;;;;;;;14.43;5.32;;;10.40;99.90;;;;;;4999120;28;20080;-93
2024/04/05 00:53:23;;;;;;;12.07;4.88;;;10.50;99.90;;;;;;5016431;28;20034;-93
2024/04/05 00:55:55;;;;;;;17.25;5.15;;;10.50;99.90;;;;;;4999097;28;20034;-94
2024/04/05 00:58:22;;;;;;;12.07;3.95;;;10.50;99.90;;;;;;5004245;28;20029;-94
2024/04/05 01:00:50;;;;;;;6.60;3.72;;;10.50;99.90;;;;;;5016179;28;20046;-95
2024/04/05 01:03:19;;;;;;;11.48;3.40;;;10.50;99.90;;;;;;5018820;28;20065;-94
2024/04/05 01:05:49;;;;;;;7.60;2.30;;;10.50;99.90;;;;;;5005400;28;20156;-93
2024/04/05 01:08:19;;;;;;;5.68;2.17;;;10.60;99.90;;;;;;5013410;28;20499;-93
2024/04/05 01:10:47;;;;;;;3.88;1.67;;;10.60;99.90;;;;;;5005387;28;20029;-93
2024/04/05 01:13:17;;;;;;;4.05;1.83;;;10.60;99.90;;;;;;4999636;28;20037;-95
2024/04/05 01:15:45;;;;;;;2.97;1.10;;;10.60;99.90;;;;;;4999781;28;20061;-93
2024/04/05 01:18:22;;;;;;;2.33;1.00;;;10.70;99.90;;;;;;5001346;28;20272;-95
2024/04/05 01:21:06;;;;;;;2.88;1.08;;;10.70;99.90;;;;;;5000301;28;20068;-93
2024/04/05 01:23:54;;;;;;;5.72;1.20;;;10.80;99.90;;;;;;5009803;28;20042;-92
2024/04/05 01:26:22;;;;;;;2.88;1.10;;;10.80;99.90;;;;;;5011327;28;20038;-93
2024/04/05 01:28:48;;;;;;;5.10;1.50;;;10.80;99.90;;;;;;5007573;28;20061;-93
2024/04/05 01:31:15;;;;;;;4.35;1.55;;;10.80;99.90;;;;;;5004721;28;20022;-92
2024/04/05 01:33:46;;;;;;;4.82;1.20;;;10.90;99.90;;;;;;5003205;28;20033;-93
2024/04/05 01:36:15;;;;;;;3.65;1.20;;;10.90;99.90;;;;;;4997539;28;20522;-94
2024/04/05 01:38:43;;;;;;;4.93;1.35;;;10.90;99.90;;;;;;5017578;28;20057;-92
2024/04/05 01:41:11;;;;;;;4.63;1.65;;;11.00;99.90;;;;;;5017564;28;20033;-92
2024/04/05 01:43:38;;;;;;;5.75;1.38;;;11.00;99.90;;;;;;4983616;28;20033;-94
2024/04/05 01:46:05;;;;;;;8.20;1.63;;;11.00;99.90;;;;;;5000191;28;20025;-94
2024/04/05 01:48:31;;;;;;;5.30;1.50;;;11.00;99.90;;;;;;5006606;28;20097;-95
2024/04/05 01:51:00;;;;;;;2.83;1.20;;;11.00;99.90;;;;;;4986704;28;20109;-94
2024/04/05 01:53:33;;;;;;;4.68;1.30;;;11.00;99.90;;;;;;4984718;28;20499;-94
2024/04/05 01:56:08;;;;;;;6.95;1.50;;;11.00;99.90;;;;;;5016131;28;20026;-93
2024/04/05 01:58:37;;;;;;;6.45;1.27;;;11.00;99.90;;;;;;4998542;28;20091;-94
2024/04/05 02:01:24;;;;;;;3.35;1.30;;;11.00;99.90;;;;;;4999196;28;20028;-93
2024/04/05 02:04:10;;;;;;;6.60;1.38;;;11.10;99.90;;;;;;5015468;28;20038;-93
2024/04/05 02:06:52;;;;;;;2.70;1.40;;;11.10;99.90;;;;;;4999769;28;20037;-94
2024/04/05 02:09:25;;;;;;;6.82;1.40;;;11.00;99.90;;;;;;4959311;28;20046;-94
2024/04/05 02:12:13;;;;;;;4.90;1.30;;;11.00;99.90;;;;;;4958268;28;20035;-93
2024/04/05 02:14:55;;;;;;;9.90;1.63;;;11.00;99.90;;;;;;4974877;28;20138;-93
2024/04/05 02:17:37;;;;;;;4.00;1.20;;;11.00;99.90;;;;;;4974584;28;20066;-94
2024/04/05 02:20:11;;;;;;;6.65;1.50;;;11.00;99.90;;;;;;4972458;28;20043;-95
2024/04/05 02:22:40;;;;;;;6.80;1.48;;;11.10;99.90;;;;;;4973897;28;20390;-95
2024/04/05 02:25:46;;;;;;;5.95;1.55;;;11.10;99.90;;;;;;4974633;28;20065;-94
2024/04/05 02:28:14;;;;;;;6.93;1.80;;;11.10;99.90;;;;;;4974243;28;20062;-94
2024/04/05 02:30:46;;;;;;;4.60;1.25;;;11.10;99.90;;;;;;4959320;28;20096;-94
2024/04/05 02:33:30;;;;;;;8.40;1.73;;;11.10;99.90;;;;;;4942990;28;20050;-93
2024/04/05 02:36:02;;;;;;;9.10;2.08;;;11.10;99.90;;;;;;4974178;28;20066;-94
2024/04/05 02:41:59;;;;;;;6.25;1.70;;;11.20;99.90;;;;;;4966269;28;20035;-96
2024/04/05 02:44:32;;;;;;;10.38;2.08;;;11.30;99.90;;;;;;4961227;28;20069;-94
2024/04/05 02:47:44;;;;;;;11.40;2.38;;;11.30;99.90;;;;;;4981611;28;20056;-93
2024/04/05 02:50:15;;;;;;;10.30;1.80;;;11.40;99.90;;;;;;4998201;28;20038;-94
2024/04/05 02:53:02;;;;;;;11.93;2.13;;;11.40;99.90;;;;;;5015514;28;20109;-93
2024/04/05 02:55:39;;;;;;;7.05;1.90;;;11.40;99.90;;;;;;4998012;28;20559;-94
2024/04/05 02:58:25;;;;;;;6.00;1.67;;;11.30;99.90;;;;;;4997509;28;20045;-94
2024/04/05 03:01:34;;;;;;;9.48;1.65;;;11.40;99.90;;;;;;5014684;28;20084;-94
2024/04/05 03:04:17;;;;;;;16.15;3.75;;;11.40;99.90;;;;;;4999626;28;20026;-95
2024/04/05 03:06:50;;;;;;;15.82;2.50;;;11.40;99.90;;;;;;4998261;28;20042;-94
2024/04/05 03:09:18;;;;;;;7.40;1.63;;;11.40;99.90;;;;;;4988769;28;20037;-94
2024/04/05 03:12:18;;;;;;;12.27;2.35;;;11.40;99.90;;;;;;5007588;28;20037;-94
2024/04/05 03:14:52;;;;;;;8.07;1.90;;;11.40;99.90;;;;;;5005801;28;20041;-93
2024/04/05 03:17:33;;;;;;;8.65;1.88;;;11.40;99.90;;;;;;5006578;28;20041;-95
2024/04/05 03:20:12;;;;;;;7.00;1.77;;;11.40;99.90;;;;;;5022246;28;20025;-95
2024/04/05 03:22:43;;;;;;;11.30;1.52;;;11.40;99.90;;;;;;4997909;28;20042;-95
2024/04/05 03:25:19;;;;;;;12.68;2.40;;;11.30;99.90;;;;;;4997119;28;20022;-94
2024/04/05 03:28:10;;;;;;;11.98;1.92;;;11.40;99.90;;;;;;5004256;28;20038;-95
2024/04/05 03:30:44;;;;;;;9.93;1.63;;;11.30;99.90;;;;;;4997074;28;20038;-94
2024/04/05 03:33:48;;;;;;;11.23;2.58;;;11.30;99.90;;;;;;4997300;28;20034;-95
2024/04/05 03:36:14;;;;;;;16.42;2.45;;;11.30;99.90;;;;;;4999872;28;20543;-95
2024/04/05 03:38:44;;;;;;;7.15;1.23;;;11.30;99.90;;;;;;5000276;28;20068;-94
2024/04/05 03:41:16;;;;;;;11.88;3.33;;;11.30;99.90;;;;;;4999838;28;20038;-93
2024/04/05 03:43:56;;;;;;;5.30;1.40;;;11.30;99.90;;;;;;5000414;28;20236;-95
2024/04/05 03:46:28;;;;;;;10.07;1.73;;;11.30;99.90;;;;;;5002587;28;20192;-93
2024/04/05 03:49:02;;;;;;;10.07;2.55;;;11.30;99.90;;;;;;5016204;28;20105;-95
2024/04/05 03:51:33;;;;;;;8.90;1.55;;;11.30;99.90;;;;;;5018332;28;20053;-94
2024/04/05 03:54:05;;;;;;;10.07;2.30;;;11.30;99.90;;;;;;5002402;28;20498;-94
2024/04/05 03:56:33;;;;;;;11.35;3.72;;;11.30;99.90;;;;;;5000193;28;20046;-93
2024/04/05 03:58:58;;;;;;;9.18;1.52;;;11.30;99.90;;;;;;4984465;28;20072;-94
2024/04/05 04:01:32;;;;;;;7.28;1.33;;;11.30;99.90;;;;;;5000233;28;20022;-93
2024/04/05 04:04:03;;;;;;;11.32;2.20;;;11.30;99.90;;;;;;4999448;28;20026;-94
2024/04/05 04:06:30;;;;;;;5.30;1.42;;;11.30;99.90;;;;;;4998927;28;20034;-94
2024/04/05 04:08:56;;;;;;;6.65;1.65;;;11.30;99.90;;;;;;5001305;28;20480;-94
2024/04/05 04:11:28;;;;;;;4.97;1.48;;;11.30;99.90;;;;;;5014071;28;20129;-95
2024/04/05 04:13:54;;;;;;;2.78;0.90;;;11.20;99.90;;;;;;5030265;28;20085;-93
2024/04/05 04:16:25;;;;;;;8.68;3.08;;;11.20;99.90;;;;;;5010660;28;20029;-95
2024/04/05 04:18:51;;;;;;;4.50;1.33;;;11.20;99.90;;;;;;5011342;28;20033;-95
2024/04/05 04:21:17;;;;;;;5.72;0.95;;;11.20;99.90;;;;;;5003508;28;20080;-95
2024/04/05 04:23:46;;;;;;;9.52;1.40;;;11.20;99.90;;;;;;5001352;28;20081;-95
2024/04/05 04:26:16;;;;;;;9.35;1.60;;;11.20;99.90;;;;;;5000156;28;20088;-96
2024/04/05 04:28:44;;;;;;;7.95;1.30;;;11.20;99.90;;;;;;5017579;28;20034;-94
2024/04/05 04:31:23;;;;;;;6.53;1.40;;;11.20;99.90;;;;;;5000019;28;20026;-95
2024/04/05 04:33:53;;;;;;;8.68;1.70;;;11.20;99.90;;;;;;4999929;28;20026;-94
2024/04/05 04:36:21;;;;;;;9.90;1.20;;;11.20;99.90;;;;;;5000014;28;20022;-95
2024/04/05 04:38:48;;;;;;;10.27;3.30;;;11.20;99.90;;;;;;4983232;28;20411;-95
2024/04/05 04:41:14;;;;;;;7.35;1.30;;;11.30;99.90;;;;;;4982925;28;20034;-94
2024/04/05 04:43:40;;;;;;;3.75;0.95;;;11.30;99.90;;;;;;4999286;28;20099;-94
2024/04/05 04:46:07;;;;;;;5.88;1.48;;;11.30;99.90;;;;;;4998323;28;20034;-94
2024/04/05 04:48:33;;;;;;;12.18;1.27;;;11.30;99.90;;;;;;5016406;28;20030;-94
2024/04/05 04:50:59;;;;;;;4.68;1.17;;;11.30;99.90;;;;;;4998971;28;20112;-93
2024/04/05 04:53:25;;;;;;;3.83;1.20;;;11.30;99.90;;;;;;4999165;28;20030;-94
2024/04/05 04:55:51;;;;;;;4.35;1.10;;;11.30;99.90;;;;;;4999268;28;20093;-93
2024/04/05 04:58:18;;;;;;;8.77;1.40;;;11.30;99.90;;;;;;4998698;28;20070;-93
2024/04/05 05:00:47;;;;;;;10.15;1.50;;;11.30;99.90;;;;;;4998737;28;20030;-94
2024/04/05 05:03:13;;;;;;;6.32;1.40;;;11.30;99.90;;;;;;4999600;28;20471;-93
2024/04/05 05:05:39;;;;;;;6.28;1.45;;;11.30;99.90;;;;;;4998918;28;20034;-93
2024/04/05 05:08:05;;;;;;;7.63;1.27;;;11.30;99.90;;;;;;4998580;28;20030;-93
2024/04/05 05:10:31;;;;;;;3.88;1.48;;;11.20;99.90;;;;;;5008051;28;20097;-92
2024/04/05 05:12:59;;;;;;;5.70;1.27;;;11.20;99.90;;;;;;5005122;28;20522;-93
2024/04/05 05:15:26;;;;;;;7.15;2.83;;;11.20;99.90;;;;;;4998311;28;20026;-94
2024/04/05 05:17:53;;;;;;;6.38;1.17;;;11.20;99.90;;;;;;4998992;28;20045;-94
2024/04/05 05:20:26;;;;;;;6.53;1.33;;;11.20;99.90;;;;;;4998699;28;20022;-95
2024/04/05 05:22:56;;;;;;;5.75;0.90;;;11.20;99.90;;;;;;4998264;28;20041;-95
2024/04/05 05:25:22;;;;;;;4.15;1.17;;;11.20;99.90;;;;;;4997996;28;20137;-94
2024/04/05 05:27:48;;;;;;;3.60;1.00;;;11.20;99.90;;;;;;4998022;28;20033;-94
2024/04/05 05:30:15;;;;;;;5.20;1.20;;;11.20;99.90;;;;;;4997786;28;20657;-94
2024/04/05 05:32:44;;;;;;;6.70;1.33;;;11.10;99.90;;;;;;4998078;28;20121;-93
2024/04/05 05:35:10;;;;;;;3.88;1.33;;;11.20;99.90;;;;;;4997520;28;20086;-94
2024/04/05 05:37:36;;;;;;;7.03;1.20;;;11.20;99.90;;;;;;4998271;28;20060;-93
2024/04/05 05:40:01;;;;;;;5.55;0.75;;;11.20;99.90;;;;;;4982416;28;20033;-93
2024/04/05 05:42:28;;;;;;;4.32;1.48;;;11.10;99.90;;;;;;4998095;28;20018;-94
2024/04/05 05:44:56;;;;;;;5.30;1.40;;;11.10;99.90;;;;;;4998362;28;20507;-94
2024/04/05 05:47:22;;;;;;;5.35;1.48;;;11.20;99.90;;;;;;4998278;28;20240;-95
2024/04/05 05:49:52;;;;;;;3.08;1.30;;;11.10;99.90;;;;;;4997877;28;20029;-94
2024/04/05 05:52:18;;;;;;;4.95;0.90;;;11.20;99.90;;;;;;4998059;28;20034;-95
2024/04/05 05:54:44;;;;;;;5.22;1.15;;;11.10;99.90;;;;;;4998337;28;20030;-95
2024/04/05 05:57:10;;;;;;;4.85;1.10;;;11.10;99.90;;;;;;4998105;28;20099;-94
2024/04/05 05:59:36;;;;;;;3.10;0.70;;;11.10;99.90;;;;;;4997190;28;20026;-95
2024/04/05 06:02:03;;;;;;;2.67;1.10;;;11.10;99.90;;;;;;4997213;28;20072;-95
2024/04/05 06:04:29;;;;;;;4.80;1.38;;;11.10;99.90;;;;;;4997275;28;20088;-94
2024/04/05 06:06:55;;;;;;;1.50;0.77;;;11.10;99.90;;;;;;4997363;28;20033;-96
2024/04/05 06:09:30;;;;;;;5.10;1.40;;;11.10;99.90;;;;;;4997496;28;20026;-94
2024/04/05 06:12:00;;;;;;;3.35;1.00;;;11.10;99.90;;;;;;4995326;28;20018;-94
2024/04/05 06:14:27;;;;;;;5.97;1.63;;;11.00;99.90;;;;;;4998788;28;20094;-94
2024/04/05 06:17:39;;;;;;;;;;;;;;;;;;;;;
2024/04/05 06:20:21;;;;;;;;;;;;;;;;;;;;;
2024/04/05 06:23:17;;;;;;;2.67;1.20;;;11.00;99.90;;;;;;5008788;28;20387;-96
2024/04/05 06:25:54;;;;;;;5.95;1.90;;;11.00;99.90;;;;;;4988320;28;20038;-96
2024/04/05 06:28:36;;;;;;;3.45;0.93;;;11.00;99.90;;;;;;4985426;28;20092;-95
2024/04/05 06:31:24;;;;;;;;;;;;;;;;;;;;;
2024/04/05 06:33:50;;;;;;;4.22;1.10;;;11.00;99.90;;;;;;5003926;28;20041;-94
2024/04/05 06:36:28;;;;;;;4.32;0.82;;;11.00;99.90;;;;;;4998564;28;20033;-95
2024/04/05 06:38:59;;;;;;;7.07;1.55;;;11.00;99.90;;;;;;4970116;28;20041;-94
2024/04/05 06:41:31;;;;;;;6.35;1.15;;;11.10;99.90;;;;;;4999328;28;20033;-94
2024/04/05 06:44:00;;;;;;;2.10;0.80;;;11.10;99.90;;;;;;4996042;28;20029;-94
2024/04/05 06:46:31;;;;;;;6.65;1.10;;;11.10;99.90;;;;;;4997917;28;20044;-95
2024/04/05 06:49:15;;;;;;;;;;;;;;;;;;;;;
2024/04/05 06:52:08;;;;;;;4.18;1.00;;;11.20;99.90;;;;;;4998033;28;20557;-94
2024/04/05 06:54:42;;;;;;;8.05;1.10;;;11.20;99.90;;;;;;5007783;28;20037;-95
2024/04/05 07:00:34;;;;;;;2.03;0.65;;;11.10;99.90;;;;;;4938112;29;20152;-94
2024/04/05 07:03:04;;;;;;;2.97;0.77;;;11.00;99.90;;;;;;4936092;29;20103;-95
2024/04/05 07:05:43;;;;;;;2.42;0.80;;;11.00;99.90;;;;;;4912929;29;20075;-95
2024/04/05 07:08:18;;;;;;;3.50;0.82;;;11.00;99.90;;;;;;4914119;29;20114;-95
2024/04/05 07:10:59;;;;;;;3.28;0.75;;;10.90;99.90;;;;;;4915851;29;20036;-95
2024/04/05 07:13:38;;;;;;;4.28;1.67;;;10.90;99.90;;;;;;4932005;29;20032;-95
2024/04/05 07:16:38;;;;;;;1.83;0.73;;;10.90;99.90;;;;;;4935326;29;20036;-95
2024/04/05 07:19:05;;;;;;;1.90;0.70;;;10.80;99.90;;;;;;4939121;29;20032;-95
2024/04/05 07:21:40;;;;;;;0.93;0.40;;;10.80;99.90;;;;;;4938409;29;20040;-95
2024/04/05 07:24:07;;;;;;;2.53;0.70;;;10.80;99.90;;;;;;4953880;29;20082;-94
2024/04/05 07:26:33;;;;;;;2.75;0.65;;;10.80;99.90;;;;;;4940580;29;20023;-94
2024/04/05 07:29:11;;;;;;;2.70;0.80;;;10.80;99.90;;;;;;4940058;29;20044;-95
2024/04/05 07:31:37;;;;;;;1.50;0.50;;;10.80;99.90;;;;;;4937713;29;20037;-94
2024/04/05 07:34:09;;;;;;;1.67;0.55;;;10.70;99.90;;;;;;4948447;29;20601;-92
2024/04/05 07:36:36;;;;;;;3.97;0.50;;;10.70;99.90;;;;;;4965599;28;20093;-92
2024/04/05 07:39:08;;;;;;;1.55;0.50;;;10.70;99.90;;;;;;5000192;28;20040;-93
2024/04/05 07:41:37;;;;;;;4.18;0.50;;;10.70;99.90;;;;;;4992282;28;20085;-92
2024/04/05 07:44:06;;;;;;;3.50;0.70;;;10.70;99.90;;;;;;4985801;28;20046;-92
2024/04/05 07:46:32;;;;;;;2.75;0.55;;;10.80;99.90;;;;;;5000481;28;20026;-91
2024/04/05 07:49:07;;;;;;;2.97;0.45;;;10.80;99.90;;;;;;4991709;28;20041;-93
2024/04/05 07:51:34;;;;;;;3.83;0.82;;;10.90;99.90;;;;;;5017094;28;20026;-92
2024/04/05 07:54:02;;;;;;;4.38;0.90;;;11.00;99.90;;;;;;5015179;28;20030;-93
2024/04/05 07:56:27;;;;;;;6.13;1.10;;;11.00;99.90;;;;;;5002412;28;20021;-93
2024/04/05 07:58:54;;;;;;;2.83;1.00;;;11.10;99.90;;;;;;4973492;28;20046;-93
2024/04/05 08:01:19;;;;;;;9.85;2.28;;;11.10;99.90;;;;;;5001486;28;20033;-93
2024/04/05 08:04:06;;;;;;;11.40;2.25;;;11.10;99.90;;;;;;5003221;28;20037;-93
2024/04/05 08:06:32;;;;;;;10.88;1.60;;;11.20;99.90;;;;;;4997911;28;20068;-93
2024/04/05 08:08:58;;;;;;;14.73;2.75;;;11.30;99.90;;;;;;4999299;28;20030;-93
2024/04/05 08:11:24;;;;;;;12.25;1.60;;;11.40;99.90;;;;;;4999902;28;20029;-93
2024/04/05 08:13:51;;;;;;;10.52;2.15;;;11.50;99.90;;;;;;4999663;28;20033;-94
2024/04/05 08:16:18;;;;;;;10.05;1.25;;;11.60;99.90;;;;;;5001483;28;20014;-94
2024/04/05 08:18:44;;;;;;;11.75;2.10;;;11.60;99.90;;;;;;5003292;28;20025;-94
2024/04/05 08:21:10;;;;;;;13.88;1.85;;;11.60;99.90;;;;;;5000348;28;20361;-95
2024/04/05 08:23:35;;;;;;;9.73;2.22;;;11.70;99.90;;;;;;5010569;28;20456;-93
2024/04/05 08:26:03;;;;;;;10.23;2.38;;;11.80;99.90;;;;;;5018336;28;20041;-94
2024/04/05 08:28:29;;;;;;;13.25;2.33;;;11.80;99.90;;;;;;5017967;28;20040;-93
2024/04/05 08:30:57;;;;;;;14.73;3.45;;;11.80;99.90;;;;;;5019041;28;20036;-94
2024/04/05 08:33:28;;;;;;;15.55;1.98;;;11.80;99.90;;;;;;5018296;28;20027;-94
2024/04/05 08:36:05;;;;;;;10.30;1.95;;;11.90;99.90;;;;;;5033995;28;20037;-94
2024/04/05 08:39:01;;;;;;;14.10;3.33;;;11.90;99.90;;;;;;5007684;28;20026;-94
2024/04/05 08:41:31;;;;;;;14.82;2.15;;;11.90;99.90;;;;;;5030763;28;20018;-94
2024/04/05 08:44:01;;;;;;;20.85;6.10;;;11.90;99.90;;;;;;5018730;28;20028;-94
2024/04/05 08:46:43;;;;;;;20.27;5.28;;;12.00;99.90;;;;;;5003270;28;20087;-94
2024/04/05 08:49:16;;;;;;;23.10;4.60;;;12.00;99.90;;;;;;5015952;28;20036;-94
2024/04/05 08:51:43;;;;;;;17.15;2.67;;;12.00;99.90;;;;;;5030171;28;20466;-95
2024/04/05 08:54:09;;;;;;;19.23;4.13;;;12.00;99.90;;;;;;5017007;28;20402;-93
2024/04/05 08:56:36;;;;;;;11.07;2.33;;;12.10;99.90;;;;;;5016030;28;20034;-95
2024/04/05 08:59:06;;;;;;;18.88;3.70;;;12.00;99.90;;;;;;5022990;28;20112;-94
2024/04/05 09:01:32;;;;;;;19.95;2.85;;;12.10;99.90;;;;;;5022964;28;20052;-93
2024/04/05 09:03:58;;;;;;;17.40;2.70;;;12.10;99.90;;;;;;5026048;28;20025;-94
2024/04/05 09:06:25;;;;;;;18.67;3.08;;;12.10;99.90;;;;;;5013088;28;20086;-94
2024/04/05 09:08:54;;;;;;;16.45;2.90;;;12.10;99.90;;;;;;5018439;28;20061;-93
2024/04/05 09:11:23;;;;;;;14.13;2.35;;;12.20;99.90;;;;;;5018226;28;20026;-94
2024/04/05 09:13:59;;;;;;;17.00;2.78;;;12.20;99.90;;;;;;5012755;28;20037;-94
2024/04/05 09:16:26;;;;;;;16.08;2.40;;;12.20;99.90;;;;;;5017587;28;20120;-93
2024/04/05 09:19:02;;;;;;;14.45;2.47;;;12.30;99.90;;;;;;5017693;28;20027;-93
2024/04/05 09:21:28;;;;;;;16.92;2.67;;;12.40;99.90;;;;;;5018265;28;20052;-93
2024/04/05 09:23:54;;;;;;;12.48;2.13;;;12.50;99.90;;;;;;5015761;28;20050;-92
2024/04/05 09:26:24;;;;;;;14.00;2.50;;;12.50;99.90;;;;;;5016308;28;20514;-93
2024/04/05 09:29:08;;;;;;;18.38;2.92;;;12.40;99.90;;;;;;5016833;28;20022;-93
2024/04/05 09:31:35;;;;;;;18.92;2.85;;;12.40;99.90;;;;;;5019266;28;20038;-91
2024/04/05 09:34:18;;;;;;;20.23;3.55;;;12.40;99.90;;;;;;5020049;28;20097;-93
2024/04/05 09:36:44;;;;;;;14.23;3.13;;;12.40;99.90;;;;;;5018852;28;20136;-92
2024/04/05 09:39:16;;;;;;;15.77;2.85;;;12.50;99.90;;;;;;5018365;28;20086;-94
2024/04/05 09:41:44;;;;;;;14.35;2.38;;;12.50;99.90;;;;;;5018247;28;20030;-93
2024/04/05 09:44:12;;;;;;;11.02;2.30;;;12.80;99.90;;;;;;5016222;28;20265;-95
2024/04/05 09:46:38;;;;;;;12.90;2.63;;;13.00;99.90;;;;;;5015685;28;20041;-94
2024/04/05 09:49:05;;;;;;;11.38;2.75;;;13.20;99.90;;;;;;5015462;28;20042;-93
2024/04/05 09:51:44;;;;;;;17.25;2.72;;;13.30;99.90;;;;;;5014819;28;20388;-94
2024/04/05 09:54:15;;;;;;;15.65;2.28;;;13.40;99.90;;;;;;5014354;28;20030;-94
2024/04/05 09:56:43;;;;;;;11.80;2.95;;;13.50;99.90;;;;;;5014467;28;20112;-93
2024/04/05 09:59:28;;;;;;;14.52;2.13;;;13.50;99.90;;;;;;5016659;28;20037;-94
2024/04/05 10:02:13;;;;;;;10.25;1.73;;;13.50;99.90;;;;;;5013692;28;20040;-93
2024/04/05 10:04:51;;;;;;;19.90;3.22;;;13.50;99.90;;;;;;5016573;28;20033;-94
2024/04/05 10:07:27;;;;;;;21.77;2.70;;;13.50;99.90;;;;;;5018402;28;20061;-93
2024/04/05 10:10:07;;;;;;;12.48;1.70;;;13.50;99.90;;;;;;5018257;28;20030;-94
2024/04/05 10:12:33;;;;;;;17.38;2.75;;;13.60;99.90;;;;;;5011127;28;20034;-93
2024/04/05 10:14:59;;;;;;;12.40;2.75;;;13.70;99.90;;;;;;5013295;28;20014;-94
2024/04/05 10:17:29;;;;;;;13.68;2.53;;;13.80;99.90;;;;;;5014488;28;20076;-93
2024/04/05 10:20:03;;;;;;;15.70;1.77;;;14.00;99.90;;;;;;5013757;28;20095;-94
2024/04/05 10:22:29;;;;;;;16.23;2.63;;;14.30;99.90;;;;;;5007815;28;20034;-93
2024/04/05 10:24:55;;;;;;;11.88;2.80;;;14.40;99.90;;;;;;5016259;28;20410;-94
2024/04/05 10:27:26;;;;;;;16.27;3.75;;;14.50;99.90;;;;;;5016186;28;20033;-94
2024/04/05 10:29:59;;;;;;;;;;;14.40;99.90;;;;;;5017393;28;20034;-93
2024/04/05 10:32:25;;;;;;;14.63;3.47;;;14.40;99.90;;;;;;5017818;28;19905;-95
2024/04/05 10:34:50;;;;;;;19.25;1.80;;;14.30;99.90;;;;;;5019821;28;20025;-95
2024/04/05 10:37:20;;;;;;;14.20;2.22;;;14.20;99.90;;;;;;5019129;28;20053;-93
2024/04/05 10:39:45;;;;;;;14.75;2.58;;;14.20;99.90;;;;;;5019231;28;20054;-92
2024/04/05 10:42:26;;;;;;;15.95;2.38;;;14.20;99.90;;;;;;5003128;28;20030;-93
2024/04/05 10:44:55;;;;;;;13.60;3.03;;;14.20;99.90;;;;;;5022746;28;20025;-93
2024/04/05 10:47:28;;;;;;;20.10;2.63;;;14.20;99.90;;;;;;5018848;28;20038;-93
2024/04/05 10:50:08;;;;;;;12.82;2.17;;;14.10;99.90;;;;;;5017342;28;20029;-93
2024/04/05 10:52:36;;;;;;;12.93;2.55;;;14.20;99.90;;;;;;5018605;28;20027;-93
2024/04/05 10:55:14;;;;;;;17.77;2.97;;;14.20;99.90;;;;;;5018493;28;20482;-92
2024/04/05 10:57:40;;;;;;;11.90;2.78;;;14.30;99.90;;;;;;5029320;28;20112;-94
2024/04/05 11:00:11;;;;;;;7.72;1.25;;;14.50;99.90;;;;;;5029762;28;20037;-93
2024/04/05 11:02:41;;;;;;;10.48;2.13;;;14.80;99.90;;;;;;5027510;28;20029;-93
2024/04/05 11:05:19;;;;;;;12.98;1.75;;;15.00;99.90;;;;;;5021438;28;20058;-95
2024/04/05 11:07:54;;;;;;;10.05;1.40;;;15.10;99.90;;;;;;5020440;28;20030;-94
2024/04/05 11:10:21;;;;;;;7.97;2.00;;;15.00;99.90;;;;;;5021143;28;20030;-94
2024/04/05 11:19:40;;;;;;;17.40;3.22;;;15.10;99.90;;;;;;5041350;23;20099;-79
2024/04/05 11:22:13;;;;;;;7.80;2.05;;;15.40;99.90;;;;;;5029637;28;20026;-80
2024/04/05 11:24:48;;;;;;;13.60;1.73;;;15.40;99.90;;;;;;5013129;28;20033;-77
2024/04/05 11:27:20;;;;;;;14.63;2.35;;;15.40;99.90;;;;;;5010475;28;20044;-78
2024/04/05 11:29:50;;;;;;;15.23;2.40;;;15.20;99.90;;;;;;5029865;28;20021;-79
2024/04/05 11:32:33;;;;;;;12.80;2.35;;;15.10;99.90;;;;;;5013344;28;20033;-81
2024/04/05 11:35:07;;;;;;;11.35;1.98;;;15.00;99.90;;;;;;5019956;28;20132;-78
2024/04/05 11:37:33;;;;;;;14.15;2.28;;;14.80;99.90;;;;;;5026427;28;20021;-80
2024/04/05 11:40:03;;;;;;;10.50;2.10;;;14.80;99.90;;;;;;5148583;23;20773;-92
2024/04/05 11:42:28;;;;;;;12.65;2.20;;;14.70;99.90;;;;;;4996917;28;20026;-92
2024/04/05 11:44:54;;;;;;;10.20;1.98;;;14.70;99.90;;;;;;5014080;28;20033;-92
2024/04/05 11:47:26;;;;;;;9.50;1.70;;;14.60;99.90;;;;;;5014846;28;20668;-92
2024/04/05 11:50:27;;;;;;;10.38;1.70;;;14.60;99.90;;;;;;5015052;28;20033;-92
2024/04/05 11:52:53;;;;;;;14.68;2.50;;;14.50;99.90;;;;;;5010158;28;20029;-94
2024/04/05 11:55:19;;;;;;;17.05;2.15;;;14.50;99.90;;;;;;5022342;28;20179;-92
2024/04/05 11:57:45;;;;;;;14.98;2.17;;;14.40;99.90;;;;;;5031271;28;20054;-94
2024/04/05 12:00:13;;;;;;;15.77;1.95;;;14.30;99.90;;;;;;5018733;28;20143;-95
2024/04/05 12:02:41;;;;;;;12.45;2.75;;;14.20;99.90;;;;;;5018571;28;20022;-93
2024/04/05 12:05:08;;;;;;;13.23;1.90;;;14.10;99.90;;;;;;5016325;28;20088;-94
2024/04/05 12:07:34;;;;;;;13.85;1.50;;;14.20;99.90;;;;;;5019551;28;20029;-93
2024/04/05 12:10:00;;;;;;;12.75;1.70;;;14.30;99.90;;;;;;5020970;28;20017;-93
2024/04/05 12:12:28;;;;;;;10.00;1.70;;;14.60;99.90;;;;;;5019763;28;20018;-92
2024/04/05 12:14:55;;;;;;;14.18;1.83;;;14.90;99.90;;;;;;5019489;28;20018;-92
2024/04/05 12:17:21;;;;;;;14.45;1.63;;;15.00;99.90;;;;;;5019880;28;20108;-92
2024/04/05 12:19:47;;;;;;;8.48;1.80;;;15.20;99.90;;;;;;5019824;28;20018;-93
2024/04/05 12:22:13;;;;;;;11.20;1.65;;;15.40;99.90;;;;;;5019479;28;20025;-94
2024/04/05 12:24:39;;;;;;;11.15;1.70;;;15.60;99.90;;;;;;5020761;28;20036;-93
2024/04/05 12:27:07;;;;;;;5.10;1.35;;;15.70;99.90;;;;;;5020137;28;20494;-94
2024/04/05 12:29:33;;;;;;;12.10;1.50;;;15.70;99.90;;;;;;5022359;28;20033;-93
2024/04/05 12:32:15;;;;;;;11.98;2.42;;;15.70;99.90;;;;;;5037093;28;20121;-93
2024/04/05 12:34:41;;;;;;;7.68;1.45;;;15.70;99.90;;;;;;5007893;28;20025;-92
2024/04/05 12:37:09;;;;;;;12.65;1.83;;;15.60;99.90;;;;;;5002628;28;20036;-92
2024/04/05 12:39:45;;;;;;;11.82;2.00;;;15.60;99.90;;;;;;5010682;28;20025;-93
2024/04/05 12:42:11;;;;;;;7.63;2.03;;;15.60;99.90;;;;;;4993423;28;20135;-92
2024/04/05 12:44:36;;;;;;;10.25;1.80;;;15.60;99.90;;;;;;4997657;28;20054;-92
2024/04/05 12:47:02;;;;;;;7.55;1.30;;;15.60;99.90;;;;;;5008534;28;20132;-94
2024/04/05 12:49:35;;;;;;;9.90;1.67;;;15.70;99.90;;;;;;4997225;28;20025;-93
2024/04/05 12:52:01;;;;;;;11.18;1.88;;;15.90;99.90;;;;;;4997164;28;20476;-92
2024/04/05 12:54:27;;;;;;;6.90;1.38;;;15.90;99.90;;;;;;4997083;28;20034;-93
2024/04/05 12:56:55;;;;;;;9.50;1.70;;;16.10;99.90;;;;;;4995781;28;20046;-93
2024/04/05 12:59:24;;;;;;;7.90;1.88;;;16.40;99.90;;;;;;4993593;28;20508;-93
2024/04/05 13:01:49;;;;;;;10.38;1.60;;;16.70;99.90;;;;;;4994992;28;20034;-94
2024/04/05 13:04:15;;;;;;;11.00;1.92;;;17.10;99.90;;;;;;4994598;28;20512;-93
2024/04/05 13:06:41;;;;;;;9.85;1.65;;;17.40;99.30;;;;;;4994916;28;20030;-93
2024/04/05 13:09:14;;;;;;;11.02;2.15;;;17.60;97.60;;;;;;4994248;28;20334;-93
2024/04/05 13:11:41;;;;;;;3.35;1.00;;;17.80;95.10;;;;;;4995039;28;20027;-94
2024/04/05 13:14:10;;;;;;;17.15;2.10;;;17.70;94.10;;;;;;4994659;28;20030;-94
2024/04/05 13:16:36;;;;;;;15.38;2.08;;;17.80;93.20;;;;;;4992218;28;20027;-93
2024/04/05 13:19:03;;;;;;;12.13;3.22;;;17.70;93.00;;;;;;4994786;28;20058;-93
2024/04/05 13:21:29;;;;;;;10.52;1.63;;;17.60;93.60;;;;;;4995103;28;20022;-94
2024/04/05 13:23:55;;;;;;;10.13;2.17;;;17.70;93.40;;;;;;4994835;28;20027;-94